sensor_id;sensor_type;location;lat;lon;timestamp;pressure;altitude;pressure_sealevel;temperature;humidity
79589;BME280;69067;51.930;4.492;2023-10-09T00:00:08;101999.44;;;25.94;45.96
79589;BME280;69067;51.930;4.492;2023-10-09T00:02:53;102003.00;;;25.94;45.53
79589;BME280;69067;51.930;4.492;2023-10-09T00:05:19;102008.69;;;25.93;46.47
79589;BME280;69067;51.930;4.492;2023-10-09T00:07:49;102008.88;;;25.91;46.05
79589;BME280;69067;51.930;4.492;2023-10-09T00:10:21;102010.56;;;25.92;46.06
79589;BME280;69067;51.930;4.492;2023-10-09T00:12:47;102006.81;;;25.93;45.96
79589;BME280;69067;51.930;4.492;2023-10-09T00:15:15;102010.34;;;25.94;46.05
79589;BME280;69067;51.930;4.492;2023-10-09T00:17:44;101995.88;;;25.93;46.27
79589;BME280;69067;51.930;4.492;2023-10-09T00:20:13;102008.69;;;25.93;45.93
79589;BME280;69067;51.930;4.492;2023-10-09T00:22:50;102004.69;;;25.95;46.72
79589;BME280;69067;51.930;4.492;2023-10-09T00:25:16;102004.69;;;25.95;46.01
79589;BME280;69067;51.930;4.492;2023-10-09T00:27:53;102007.63;;;25.94;46.16
79589;BME280;69067;51.930;4.492;2023-10-09T00:30:20;102002.16;;;25.94;46.38
79589;BME280;69067;51.930;4.492;2023-10-09T00:32:55;102001.34;;;25.93;46.08
79589;BME280;69067;51.930;4.492;2023-10-09T00:35:23;101999.44;;;25.94;46.00
79589;BME280;69067;51.930;4.492;2023-10-09T00:38:06;101999.66;;;25.92;46.52
79589;BME280;69067;51.930;4.492;2023-10-09T00:40:48;101985.16;;;25.92;45.97
79589;BME280;69067;51.930;4.492;2023-10-09T00:43:28;101987.69;;;25.93;46.19
79589;BME280;69067;51.930;4.492;2023-10-09T00:45:57;101993.53;;;25.90;45.99
79589;BME280;69067;51.930;4.492;2023-10-09T00:48:45;101992.50;;;25.91;46.00
79589;BME280;69067;51.930;4.492;2023-10-09T00:51:15;101995.22;;;25.91;46.20
79589;BME280;69067;51.930;4.492;2023-10-09T00:53:57;101998.16;;;25.89;46.10
79589;BME280;69067;51.930;4.492;2023-10-09T00:56:32;101997.13;;;25.91;46.55
79589;BME280;69067;51.930;4.492;2023-10-09T00:59:05;101991.84;;;25.89;46.28
79589;BME280;69067;51.930;4.492;2023-10-09T01:01:35;101993.53;;;25.90;46.00
79589;BME280;69067;51.930;4.492;2023-10-09T01:04:06;101985.34;;;25.90;46.50
79589;BME280;69067;51.930;4.492;2023-10-09T01:06:45;101980.75;;;25.91;46.33
79589;BME280;69067;51.930;4.492;2023-10-09T01:09:14;101974.44;;;25.90;46.29
79589;BME280;69067;51.930;4.492;2023-10-09T01:11:41;101974.44;;;25.90;45.84
79589;BME280;69067;51.930;4.492;2023-10-09T01:14:45;101974.06;;;25.93;45.92
79589;BME280;69067;51.930;4.492;2023-10-09T01:17:13;101973.22;;;25.93;46.79
79589;BME280;69067;51.930;4.492;2023-10-09T01:19:44;101960.84;;;25.97;46.13
79589;BME280;69067;51.930;4.492;2023-10-09T01:22:10;101959.34;;;25.94;45.88
79589;BME280;69067;51.930;4.492;2023-10-09T01:24:42;101957.28;;;25.96;46.06
79589;BME280;69067;51.930;4.492;2023-10-09T01:27:08;101950.97;;;25.96;46.35
79589;BME280;69067;51.930;4.492;2023-10-09T01:29:41;101958.31;;;25.95;46.96
79589;BME280;69067;51.930;4.492;2023-10-09T01:32:08;101951.16;;;25.94;46.35
79589;BME280;69067;51.930;4.492;2023-10-09T01:34:42;101939.00;;;25.97;45.96
79589;BME280;69067;51.930;4.492;2023-10-09T01:37:12;101941.53;;;25.98;46.15
79589;BME280;69067;51.930;4.492;2023-10-09T01:39:55;101939.00;;;25.97;46.24
79589;BME280;69067;51.930;4.492;2023-10-09T01:42:45;101933.34;;;25.98;46.60
79589;BME280;69067;51.930;4.492;2023-10-09T01:45:11;101933.16;;;26.00;46.71
79589;BME280;69067;51.930;4.492;2023-10-09T01:47:52;101943.88;;;26.01;46.25
79589;BME280;69067;51.930;4.492;2023-10-09T01:50:22;101922.03;;;26.01;46.09
79589;BME280;69067;51.930;4.492;2023-10-09T01:52:52;101923.06;;;26.00;46.48
79589;BME280;69067;51.930;4.492;2023-10-09T01:55:18;101922.88;;;26.02;46.85
79589;BME280;69067;51.930;4.492;2023-10-09T01:57:55;101927.72;;;26.00;46.01
79589;BME280;69067;51.930;4.492;2023-10-09T02:00:23;101928.75;;;25.99;45.98
79589;BME280;69067;51.930;4.492;2023-10-09T02:02:53;101927.06;;;25.98;46.86
79589;BME280;69067;51.930;4.492;2023-10-09T02:05:19;101925.16;;;25.98;46.68
79589;BME280;69067;51.930;4.492;2023-10-09T02:07:45;101924.53;;;25.96;46.31
79589;BME280;69067;51.930;4.492;2023-10-09T02:10:18;101920.75;;;25.97;46.43
79589;BME280;69067;51.930;4.492;2023-10-09T02:12:56;101926.22;;;25.97;46.35
79589;BME280;69067;51.930;4.492;2023-10-09T02:15:31;101920.28;;;25.94;46.29
79589;BME280;69067;51.930;4.492;2023-10-09T02:18:29;101917.38;;;25.95;46.75
79589;BME280;69067;51.930;4.492;2023-10-09T02:23:34;101908.56;;;25.93;46.55
79589;BME280;69067;51.930;4.492;2023-10-09T02:26:11;101920.50;;;25.92;46.85
79589;BME280;69067;51.930;4.492;2023-10-09T02:29:04;101916.09;;;25.91;46.77
79589;BME280;69067;51.930;4.492;2023-10-09T02:31:44;101910.63;;;25.91;46.63
79589;BME280;69067;51.930;4.492;2023-10-09T02:34:12;101916.09;;;25.91;46.86
79589;BME280;69067;51.930;4.492;2023-10-09T02:36:41;101919.72;;;25.98;46.65
79589;BME280;69067;51.930;4.492;2023-10-09T02:39:15;101928.88;;;25.91;46.94
79589;BME280;69067;51.930;4.492;2023-10-09T02:41:57;101914.41;;;25.90;46.77
79589;BME280;69067;51.930;4.492;2023-10-09T02:44:38;101913.56;;;25.89;46.78
79589;BME280;69067;51.930;4.492;2023-10-09T02:47:12;101916.28;;;25.89;46.57
79589;BME280;69067;51.930;4.492;2023-10-09T02:49:47;101907.25;;;25.89;46.82
79589;BME280;69067;51.930;4.492;2023-10-09T02:52:17;101903.47;;;25.90;47.24
79589;BME280;69067;51.930;4.492;2023-10-09T02:54:53;101893.78;;;25.87;46.55
79589;BME280;69067;51.930;4.492;2023-10-09T02:57:28;101896.34;;;25.89;47.01
79589;BME280;69067;51.930;4.492;2023-10-09T03:00:03;101895.47;;;25.88;47.11
79589;BME280;69067;51.930;4.492;2023-10-09T03:02:34;101896.75;;;25.86;46.76
79589;BME280;69067;51.930;4.492;2023-10-09T03:05:06;101897.56;;;25.86;46.59
79589;BME280;69067;51.930;4.492;2023-10-09T03:07:37;101897.38;;;25.88;46.94
79589;BME280;69067;51.930;4.492;2023-10-09T03:10:06;101894.63;;;25.88;46.51
79589;BME280;69067;51.930;4.492;2023-10-09T03:12:35;101891.06;;;25.87;47.08
79589;BME280;69067;51.930;4.492;2023-10-09T03:15:01;101884.13;;;25.85;46.82
79589;BME280;69067;51.930;4.492;2023-10-09T03:17:31;101890.03;;;25.88;47.13
79589;BME280;69067;51.930;4.492;2023-10-09T03:20:03;101882.03;;;25.87;46.50
79589;BME280;69067;51.930;4.492;2023-10-09T03:22:38;101877.66;;;25.86;47.08
79589;BME280;69067;51.930;4.492;2023-10-09T03:25:06;101876.56;;;25.87;46.42
79589;BME280;69067;51.930;4.492;2023-10-09T03:27:39;101877.66;;;25.86;46.86
79589;BME280;69067;51.930;4.492;2023-10-09T03:30:15;101881.00;;;25.88;47.11
79589;BME280;69067;51.930;4.492;2023-10-09T03:32:49;101883.72;;;25.88;46.54
79589;BME280;69067;51.930;4.492;2023-10-09T03:35:20;101891.91;;;25.88;46.95
79589;BME280;69067;51.930;4.492;2023-10-09T03:37:58;101907.44;;;25.87;46.43
79589;BME280;69067;51.930;4.492;2023-10-09T03:40:41;101918.16;;;25.89;46.55
79589;BME280;69067;51.930;4.492;2023-10-09T03:43:11;101924.47;;;25.89;46.63
79589;BME280;69067;51.930;4.492;2023-10-09T03:45:37;101929.28;;;25.87;46.70
79589;BME280;69067;51.930;4.492;2023-10-09T03:48:11;101929.28;;;25.87;46.77
79589;BME280;69067;51.930;4.492;2023-10-09T03:50:58;101925.31;;;25.90;46.73
79589;BME280;69067;51.930;4.492;2023-10-09T03:53:37;101934.34;;;25.91;46.69
79589;BME280;69067;51.930;4.492;2023-10-09T03:56:08;101924.94;;;25.93;47.35
79589;BME280;69067;51.930;4.492;2023-10-09T03:58:49;101925.97;;;25.92;47.11
79589;BME280;69067;51.930;4.492;2023-10-09T04:01:17;101916.94;;;25.92;46.49
79589;BME280;69067;51.930;4.492;2023-10-09T04:03:53;101903.47;;;25.90;46.82
79589;BME280;69067;51.930;4.492;2023-10-09T04:06:26;101917.78;;;25.92;46.34
79589;BME280;69067;51.930;4.492;2023-10-09T04:09:04;101923.44;;;25.91;46.45
79589;BME280;69067;51.930;4.492;2023-10-09T04:11:51;101928.69;;;25.92;46.88
79589;BME280;69067;51.930;4.492;2023-10-09T04:14:36;101925.75;;;25.94;46.57
79589;BME280;69067;51.930;4.492;2023-10-09T04:17:13;101915.69;;;25.94;47.22
79589;BME280;69067;51.930;4.492;2023-10-09T04:19:57;101902.03;;;25.94;47.22
79589;BME280;69067;51.930;4.492;2023-10-09T04:22:41;101878.72;;;25.92;46.45
79589;BME280;69067;51.930;4.492;2023-10-09T04:25:17;101880.19;;;25.94;46.88
79589;BME280;69067;51.930;4.492;2023-10-09T04:28:00;101884.00;;;25.93;47.00
79589;BME280;69067;51.930;4.492;2023-10-09T04:30:41;101881.25;;;25.93;47.19
79589;BME280;69067;51.930;4.492;2023-10-09T04:33:09;101879.56;;;25.92;46.75
79589;BME280;69067;51.930;4.492;2023-10-09T04:36:07;101874.97;;;25.93;46.64
79589;BME280;69067;51.930;4.492;2023-10-09T04:38:49;101885.22;;;25.91;46.99
79589;BME280;69067;51.930;4.492;2023-10-09T04:41:30;101900.09;;;25.88;47.01
79589;BME280;69067;51.930;4.492;2023-10-09T04:44:18;101896.34;;;25.89;47.17
79589;BME280;69067;51.930;4.492;2023-10-09T04:46:49;101903.47;;;25.90;47.13
79589;BME280;69067;51.930;4.492;2023-10-09T04:49:35;101900.75;;;25.90;46.41
79589;BME280;69067;51.930;4.492;2023-10-09T04:52:13;101915.25;;;25.91;46.71
79589;BME280;69067;51.930;4.492;2023-10-09T04:54:51;101915.25;;;25.91;46.59
79589;BME280;69067;51.930;4.492;2023-10-09T04:57:38;101916.28;;;25.89;47.08
79589;BME280;69067;51.930;4.492;2023-10-09T05:02:54;101907.06;;;25.91;47.29
79589;BME280;69067;51.930;4.492;2023-10-09T05:05:33;101924.09;;;25.93;46.75
79589;BME280;69067;51.930;4.492;2023-10-09T05:10:50;101935.84;;;25.93;46.99
79589;BME280;69067;51.930;4.492;2023-10-09T05:13:40;101935.00;;;25.93;46.36
79589;BME280;69067;51.930;4.492;2023-10-09T05:16:16;101944.66;;;25.95;46.50
79589;BME280;69067;51.930;4.492;2023-10-09T05:18:52;101941.50;;;25.92;46.82
79589;BME280;69067;51.930;4.492;2023-10-09T05:21:31;101941.94;;;25.95;47.10
79589;BME280;69067;51.930;4.492;2023-10-09T05:23:59;101934.59;;;25.96;46.58
79589;BME280;69067;51.930;4.492;2023-10-09T05:26:50;101942.78;;;25.96;46.98
79589;BME280;69067;51.930;4.492;2023-10-09T05:29:21;101940.91;;;25.96;47.39
79589;BME280;69067;51.930;4.492;2023-10-09T05:31:54;101935.44;;;25.96;46.53
79589;BME280;69067;51.930;4.492;2023-10-09T05:34:26;101932.72;;;25.96;46.61
79589;BME280;69067;51.930;4.492;2023-10-09T05:37:10;101937.13;;;25.97;46.42
79589;BME280;69067;51.930;4.492;2023-10-09T05:39:55;101934.22;;;25.99;46.35
79589;BME280;69067;51.930;4.492;2023-10-09T05:45:10;101921.59;;;25.98;46.92
79589;BME280;69067;51.930;4.492;2023-10-09T05:47:51;101922.44;;;25.98;46.29
79589;BME280;69067;51.930;4.492;2023-10-09T05:50:26;101924.53;;;25.96;46.55
79589;BME280;69067;51.930;4.492;2023-10-09T05:52:56;101906.91;;;25.99;46.32
79589;BME280;69067;51.930;4.492;2023-10-09T05:55:31;101901.44;;;25.99;46.03
79589;BME280;69067;51.930;4.492;2023-10-09T05:58:15;101907.75;;;25.99;45.97
79589;BME280;69067;51.930;4.492;2023-10-09T06:00:59;101903.34;;;25.98;46.17
79589;BME280;69067;51.930;4.492;2023-10-09T06:03:44;101894.31;;;25.98;46.93
79589;BME280;69067;51.930;4.492;2023-10-09T06:06:37;101894.50;;;25.96;46.40
79589;BME280;69067;51.930;4.492;2023-10-09T06:09:21;101895.34;;;25.97;46.46
79589;BME280;69067;51.930;4.492;2023-10-09T06:11:48;101900.56;;;25.92;46.21
79589;BME280;69067;51.930;4.492;2023-10-09T06:14:20;101887.75;;;25.92;47.17
79589;BME280;69067;51.930;4.492;2023-10-09T06:16:58;101888.78;;;25.91;47.09
79589;BME280;69067;51.930;4.492;2023-10-09T06:19:41;101878.91;;;25.90;46.26
79589;BME280;69067;51.930;4.492;2023-10-09T06:22:10;101874.13;;;25.92;46.88
79589;BME280;69067;51.930;4.492;2023-10-09T06:24:55;101869.88;;;25.89;46.60
79589;BME280;69067;51.930;4.492;2023-10-09T06:27:23;101889.84;;;25.90;47.10
79589;BME280;69067;51.930;4.492;2023-10-09T06:29:58;101894.25;;;25.91;46.22
79589;BME280;69067;51.930;4.492;2023-10-09T06:32:41;101906.88;;;25.92;46.74
79589;BME280;69067;51.930;4.492;2023-10-09T06:35:17;101908.94;;;25.90;47.12
79589;BME280;69067;51.930;4.492;2023-10-09T06:38:03;101914.81;;;25.94;47.17
79589;BME280;69067;51.930;4.492;2023-10-09T06:40:49;101937.06;;;25.91;47.12
79589;BME280;69067;51.930;4.492;2023-10-09T06:43:31;101938.13;;;25.89;47.42
79589;BME280;69067;51.930;4.492;2023-10-09T06:46:00;101943.38;;;25.91;46.76
79589;BME280;69067;51.930;4.492;2023-10-09T06:48:45;101928.22;;;25.88;46.30
79589;BME280;69067;51.930;4.492;2023-10-09T06:51:13;101932.47;;;25.91;46.46
79589;BME280;69067;51.930;4.492;2023-10-09T06:53:57;101938.75;;;25.92;46.54
79589;BME280;69067;51.930;4.492;2023-10-09T06:56:28;101946.09;;;25.91;47.19
79589;BME280;69067;51.930;4.492;2023-10-09T06:59:01;101943.38;;;25.91;46.46
79589;BME280;69067;51.930;4.492;2023-10-09T07:01:51;101941.69;;;25.90;46.54
79589;BME280;69067;51.930;4.492;2023-10-09T07:04:36;101950.72;;;25.91;46.28
79589;BME280;69067;51.930;4.492;2023-10-09T07:07:02;101949.88;;;25.90;46.30
79589;BME280;69067;51.930;4.492;2023-10-09T07:09:35;101924.47;;;25.89;46.31
79589;BME280;69067;51.930;4.492;2023-10-09T07:12:32;101940.00;;;25.89;46.27
79589;BME280;69067;51.930;4.492;2023-10-09T07:15:02;101929.06;;;25.89;46.10
79589;BME280;69067;51.930;4.492;2023-10-09T07:17:31;101913.56;;;25.89;46.44
79589;BME280;69067;51.930;4.492;2023-10-09T07:20:00;101912.69;;;25.89;46.42
79589;BME280;69067;51.930;4.492;2023-10-09T07:22:38;101920.88;;;25.89;46.01
79589;BME280;69067;51.930;4.492;2023-10-09T07:25:26;101928.88;;;25.91;46.19
79589;BME280;69067;51.930;4.492;2023-10-09T07:28:21;101926.16;;;25.91;46.82
79589;BME280;69067;51.930;4.492;2023-10-09T07:31:03;101937.91;;;25.91;46.19
79589;BME280;69067;51.930;4.492;2023-10-09T07:33:29;101921.53;;;25.91;46.51
79589;BME280;69067;51.930;4.492;2023-10-09T07:36:25;101923.81;;;25.87;46.38
79589;BME280;69067;51.930;4.492;2023-10-09T07:39:02;101928.22;;;25.88;46.64
79589;BME280;69067;51.930;4.492;2023-10-09T07:41:32;101934.53;;;25.89;47.12
79589;BME280;69067;51.930;4.492;2023-10-09T07:43:57;101922.97;;;25.87;46.63
79589;BME280;69067;51.930;4.492;2023-10-09T07:46:23;101922.78;;;25.88;46.19
79589;BME280;69067;51.930;4.492;2023-10-09T07:48:58;101921.94;;;25.88;46.20
79589;BME280;69067;51.930;4.492;2023-10-09T07:51:35;101915.63;;;25.87;46.92
79589;BME280;69067;51.930;4.492;2023-10-09T07:54:03;101912.28;;;25.85;46.43
79589;BME280;69067;51.930;4.492;2023-10-09T07:56:38;101916.88;;;25.85;46.54
79589;BME280;69067;51.930;4.492;2023-10-09T07:59:12;101918.56;;;25.86;46.80
79589;BME280;69067;51.930;4.492;2023-10-09T08:01:41;101917.50;;;25.87;46.86
79589;BME280;69067;51.930;4.492;2023-10-09T08:04:26;101914.78;;;25.87;46.30
79589;BME280;69067;51.930;4.492;2023-10-09T08:07:11;101906.59;;;25.87;46.68
79589;BME280;69067;51.930;4.492;2023-10-09T08:09:54;101904.94;;;25.86;46.42
79589;BME280;69067;51.930;4.492;2023-10-09T08:12:43;101918.34;;;25.87;46.34
79589;BME280;69067;51.930;4.492;2023-10-09T08:15:16;101916.66;;;25.86;46.38
79589;BME280;69067;51.930;4.492;2023-10-09T08:17:51;101919.38;;;25.86;47.11
79589;BME280;69067;51.930;4.492;2023-10-09T08:20:37;101920.66;;;25.84;46.77
79589;BME280;69067;51.930;4.492;2023-10-09T08:23:23;101931.16;;;25.87;47.21
79589;BME280;69067;51.930;4.492;2023-10-09T08:26:00;101929.50;;;25.86;46.81
79589;BME280;69067;51.930;4.492;2023-10-09T08:28:42;101954.88;;;25.86;46.39
79589;BME280;69067;51.930;4.492;2023-10-09T08:31:13;101967.28;;;25.89;46.46
79589;BME280;69067;51.930;4.492;2023-10-09T08:34:02;101979.44;;;25.86;46.53
79589;BME280;69067;51.930;4.492;2023-10-09T08:36:29;101980.28;;;25.87;46.14
79589;BME280;69067;51.930;4.492;2023-10-09T08:39:02;101981.97;;;25.88;46.52
79589;BME280;69067;51.930;4.492;2023-10-09T08:41:42;101985.34;;;25.90;46.29
79589;BME280;69067;51.930;4.492;2023-10-09T08:44:12;101986.38;;;25.89;46.54
79589;BME280;69067;51.930;4.492;2023-10-09T08:46:42;101979.03;;;25.89;46.15
79589;BME280;69067;51.930;4.492;2023-10-09T08:49:08;101973.59;;;25.89;46.40
79589;BME280;69067;51.930;4.492;2023-10-09T08:51:36;101998.34;;;25.88;46.58
79589;BME280;69067;51.930;4.492;2023-10-09T08:54:03;102002.09;;;25.87;46.58
79589;BME280;69067;51.930;4.492;2023-10-09T08:56:30;102016.41;;;25.89;46.63
79589;BME280;69067;51.930;4.492;2023-10-09T08:58:58;102021.00;;;25.88;46.70
79589;BME280;69067;51.930;4.492;2023-10-09T09:01:27;102019.31;;;25.87;46.74
79589;BME280;69067;51.930;4.492;2023-10-09T09:03:57;102029.00;;;25.90;46.42
79589;BME280;69067;51.930;4.492;2023-10-09T09:06:26;102030.06;;;25.89;46.15
79589;BME280;69067;51.930;4.492;2023-10-09T09:08:52;102027.97;;;25.91;46.68
79589;BME280;69067;51.930;4.492;2023-10-09T09:11:25;102032.78;;;25.89;46.45
79589;BME280;69067;51.930;4.492;2023-10-09T09:14:05;102032.78;;;25.89;46.58
79589;BME280;69067;51.930;4.492;2023-10-09T09:16:45;102031.09;;;25.88;46.17
79589;BME280;69067;51.930;4.492;2023-10-09T09:19:14;102038.25;;;25.89;46.23
79589;BME280;69067;51.930;4.492;2023-10-09T09:21:49;102042.00;;;25.88;46.32
79589;BME280;69067;51.930;4.492;2023-10-09T09:24:20;102028.16;;;25.89;46.18
79589;BME280;69067;51.930;4.492;2023-10-09T09:26:46;102034.84;;;25.87;46.74
79589;BME280;69067;51.930;4.492;2023-10-09T09:29:15;102030.06;;;25.89;46.45
79589;BME280;69067;51.930;4.492;2023-10-09T09:31:55;102037.19;;;25.90;46.31
79589;BME280;69067;51.930;4.492;2023-10-09T09:34:44;102024.59;;;25.89;46.25
79589;BME280;69067;51.930;4.492;2023-10-09T09:37:19;102020.16;;;25.88;46.63
79589;BME280;69067;51.930;4.492;2023-10-09T09:40:01;102030.84;;;25.83;47.09
79589;BME280;69067;51.930;4.492;2023-10-09T09:42:44;102032.34;;;25.85;46.85
79589;BME280;69067;51.930;4.492;2023-10-09T09:45:14;102030.25;;;25.87;46.87
79589;BME280;69067;51.930;4.492;2023-10-09T09:47:43;102034.22;;;25.85;46.50
79589;BME280;69067;51.930;4.492;2023-10-09T09:50:17;102033.19;;;25.86;46.38
79589;BME280;69067;51.930;4.492;2023-10-09T09:52:50;102034.84;;;25.87;46.34
79589;BME280;69067;51.930;4.492;2023-10-09T09:55:25;102033.81;;;25.88;46.57
79589;BME280;69067;51.930;4.492;2023-10-09T09:57:57;102031.28;;;25.86;46.75
79589;BME280;69067;51.930;4.492;2023-10-09T10:00:29;102033.19;;;25.86;46.14
79589;BME280;69067;51.930;4.492;2023-10-09T10:03:10;102030.25;;;25.87;46.27
79589;BME280;69067;51.930;4.492;2023-10-09T10:05:41;102036.94;;;25.85;46.00
79589;BME280;69067;51.930;4.492;2023-10-09T10:08:08;102026.88;;;25.85;46.09
79589;BME280;69067;51.930;4.492;2023-10-09T10:10:42;102022.91;;;25.88;46.64
79589;BME280;69067;51.930;4.492;2023-10-09T10:13:16;102031.09;;;25.88;46.56
79589;BME280;69067;51.930;4.492;2023-10-09T10:18:32;102037.88;;;25.92;46.45
79589;BME280;69067;51.930;4.492;2023-10-09T10:21:11;102039.75;;;25.92;46.13
79589;BME280;69067;51.930;4.492;2023-10-09T10:23:44;102044.34;;;25.91;45.99
79589;BME280;69067;51.930;4.492;2023-10-09T10:26:20;102044.34;;;25.91;46.32
79589;BME280;69067;51.930;4.492;2023-10-09T10:29:15;102044.53;;;25.89;45.81
79589;BME280;69067;51.930;4.492;2023-10-09T10:31:58;102035.50;;;25.89;46.39
79589;BME280;69067;51.930;4.492;2023-10-09T10:37:12;102039.28;;;25.88;46.30
79589;BME280;69067;51.930;4.492;2023-10-09T10:39:51;102034.66;;;25.88;45.58
79589;BME280;69067;51.930;4.492;2023-10-09T10:42:25;102034.22;;;25.85;46.31
79589;BME280;69067;51.930;4.492;2023-10-09T10:45:04;102047.47;;;25.88;46.12
79589;BME280;69067;51.930;4.492;2023-10-09T10:47:50;102046.84;;;25.86;46.12
79589;BME280;69067;51.930;4.492;2023-10-09T10:50:17;102054.38;;;25.84;46.13
79589;BME280;69067;51.930;4.492;2023-10-09T10:53:13;102059.41;;;25.87;45.72
79589;BME280;69067;51.930;4.492;2023-10-09T10:55:57;102061.75;;;25.90;46.20
79589;BME280;69067;51.930;4.492;2023-10-09T10:58:51;102064.69;;;25.88;45.85
79589;BME280;69067;51.930;4.492;2023-10-09T11:01:34;102061.09;;;25.88;46.28
79589;BME280;69067;51.930;4.492;2023-10-09T11:04:20;102058.78;;;25.85;46.04
79589;BME280;69067;51.930;4.492;2023-10-09T11:07:05;102061.50;;;25.85;46.26
79589;BME280;69067;51.930;4.492;2023-10-09T11:09:51;102062.81;;;25.89;46.28
79589;BME280;69067;51.930;4.492;2023-10-09T11:12:31;102057.34;;;25.89;46.03
79589;BME280;69067;51.930;4.492;2023-10-09T11:15:31;102052.91;;;25.88;45.75
79589;BME280;69067;51.930;4.492;2023-10-09T11:18:12;102053.56;;;25.90;45.40
79589;BME280;69067;51.930;4.492;2023-10-09T11:20:56;102047.28;;;25.89;45.71
79589;BME280;69067;51.930;4.492;2023-10-09T11:23:30;102043.50;;;25.91;46.14
79589;BME280;69067;51.930;4.492;2023-10-09T11:26:00;102048.13;;;25.90;46.59
79589;BME280;69067;51.930;4.492;2023-10-09T11:28:45;102033.63;;;25.89;46.00
79589;BME280;69067;51.930;4.492;2023-10-09T11:31:15;102030.91;;;25.89;46.12
79589;BME280;69067;51.930;4.492;2023-10-09T11:33:48;102032.78;;;25.89;46.17
79589;BME280;69067;51.930;4.492;2023-10-09T11:36:18;102029.88;;;25.91;45.41
79589;BME280;69067;51.930;4.492;2023-10-09T11:39:01;102038.91;;;25.91;46.66
79589;BME280;69067;51.930;4.492;2023-10-09T11:41:43;102046.25;;;25.91;45.76
79589;BME280;69067;51.930;4.492;2023-10-09T11:44:11;102040.78;;;25.91;45.76
79589;BME280;69067;51.930;4.492;2023-10-09T11:47:02;102034.47;;;25.90;45.86
79589;BME280;69067;51.930;4.492;2023-10-09T11:49:58;102034.84;;;25.87;46.52
79589;BME280;69067;51.930;4.492;2023-10-09T11:52:24;102038.72;;;25.93;46.42
79589;BME280;69067;51.930;4.492;2023-10-09T11:55:11;102037.03;;;25.92;46.03
79589;BME280;69067;51.930;4.492;2023-10-09T11:57:41;102033.81;;;25.88;46.68
79589;BME280;69067;51.930;4.492;2023-10-09T12:00:07;102035.06;;;25.85;46.63
79589;BME280;69067;51.930;4.492;2023-10-09T12:02:49;102035.31;;;25.91;46.48
79589;BME280;69067;51.930;4.492;2023-10-09T12:05:15;102044.09;;;25.86;47.18
79589;BME280;69067;51.930;4.492;2023-10-09T12:07:46;102034.59;;;25.82;46.44
79589;BME280;69067;51.930;4.492;2023-10-09T12:10:12;102039.09;;;25.89;46.37
79589;BME280;69067;51.930;4.492;2023-10-09T12:12:50;102035.69;;;25.87;46.11
79589;BME280;69067;51.930;4.492;2023-10-09T12:15:16;102036.41;;;25.96;46.32
79589;BME280;69067;51.930;4.492;2023-10-09T12:17:45;102024.00;;;25.94;45.90
79589;BME280;69067;51.930;4.492;2023-10-09T12:20:21;102025.50;;;25.96;45.87
79589;BME280;69067;51.930;4.492;2023-10-09T12:23:00;102028.47;;;26.01;46.13
79589;BME280;69067;51.930;4.492;2023-10-09T12:25:31;102015.69;;;26.02;45.65
79589;BME280;69067;51.930;4.492;2023-10-09T12:28:02;102021.97;;;26.02;46.04
79589;BME280;69067;51.930;4.492;2023-10-09T12:30:29;102024.53;;;26.04;45.83
79589;BME280;69067;51.930;4.492;2023-10-09T12:32:58;102022.66;;;26.04;45.90
79589;BME280;69067;51.930;4.492;2023-10-09T12:35:25;102030.66;;;26.06;45.59
79589;BME280;69067;51.930;4.492;2023-10-09T12:37:54;102026.66;;;26.08;45.36
79589;BME280;69067;51.930;4.492;2023-10-09T12:40:21;102019.72;;;26.06;45.97
79589;BME280;69067;51.930;4.492;2023-10-09T12:42:51;102025.38;;;26.04;45.67
79589;BME280;69067;51.930;4.492;2023-10-09T12:45:18;102024.91;;;26.01;45.76
79589;BME280;69067;51.930;4.492;2023-10-09T12:47:54;102025.31;;;25.98;46.41
79589;BME280;69067;51.930;4.492;2023-10-09T12:50:30;102035.63;;;26.02;45.88
79589;BME280;69067;51.930;4.492;2023-10-09T12:52:59;102030.19;;;26.02;45.65
79589;BME280;69067;51.930;4.492;2023-10-09T12:55:39;102035.25;;;26.05;46.27
79589;BME280;69067;51.930;4.492;2023-10-09T12:58:10;102042.59;;;26.05;45.18
79589;BME280;69067;51.930;4.492;2023-10-09T13:00:41;102037.78;;;26.07;46.33
79589;BME280;69067;51.930;4.492;2023-10-09T13:03:15;102039.28;;;26.09;45.47
79589;BME280;69067;51.930;4.492;2023-10-09T13:05:53;102026.03;;;26.06;45.51
79589;BME280;69067;51.930;4.492;2023-10-09T13:08:25;102037.56;;;26.08;45.52
79589;BME280;69067;51.930;4.492;2023-10-09T13:11:06;102030.03;;;26.10;45.96
79589;BME280;69067;51.930;4.492;2023-10-09T13:13:43;102030.03;;;26.10;45.57
79589;BME280;69067;51.930;4.492;2023-10-09T13:16:20;102039.88;;;26.05;46.47
79589;BME280;69067;51.930;4.492;2023-10-09T13:18:53;102037.78;;;26.07;45.61
79589;BME280;69067;51.930;4.492;2023-10-09T13:21:26;102037.53;;;26.02;46.07
79589;BME280;69067;51.930;4.492;2023-10-09T13:23:57;102030.00;;;26.04;46.21
79589;BME280;69067;51.930;4.492;2023-10-09T13:26:25;102034.41;;;26.05;46.36
79589;BME280;69067;51.930;4.492;2023-10-09T13:28:55;102040.72;;;26.05;45.17
79589;BME280;69067;51.930;4.492;2023-10-09T13:31:23;102042.41;;;26.06;45.32
79589;BME280;69067;51.930;4.492;2023-10-09T13:33:54;102035.25;;;26.05;45.91
79589;BME280;69067;51.930;4.492;2023-10-09T13:36:24;102014.44;;;26.04;45.70
79589;BME280;69067;51.930;4.492;2023-10-09T13:39:01;102024.53;;;26.04;45.62
79589;BME280;69067;51.930;4.492;2023-10-09T13:41:55;102024.97;;;26.07;45.24
79589;BME280;69067;51.930;4.492;2023-10-09T13:44:28;102027.69;;;26.07;46.17
79589;BME280;69067;51.930;4.492;2023-10-09T13:46:59;102024.16;;;26.07;45.76
79589;BME280;69067;51.930;4.492;2023-10-09T13:49:31;102022.88;;;26.09;45.99